Time;durP1;ratioP1;P1;durP2;ratioP2;P2;SDS_P1;SDS_P2;PMS_P1;PMS_P2;Temp;Humidity;BMP_temperature;BMP_pressure;BME280_temperature;BME280_humidity;BME280_pressure;Samples;Min_cycle;Max_cycle;Signal;HPM_P1;HPM_P2
2021/11/29 00:00:59;;;;;;;13.27;10.00;;;5.70;99.90;;;;;;5036143;28;20662;-54
2021/11/29 00:03:28;;;;;;;19.23;14.13;;;5.60;99.90;;;;;;5035994;28;20249;-56
2021/11/29 00:05:56;;;;;;;20.47;14.57;;;5.50;99.90;;;;;;5035804;28;20202;-55
2021/11/29 00:08:23;;;;;;;22.87;14.57;;;5.50;99.90;;;;;;5035909;28;20221;-55
2021/11/29 00:10:50;;;;;;;9.87;8.87;;;5.60;99.90;;;;;;5035992;28;20206;-54
2021/11/29 00:13:16;;;;;;;10.80;8.87;;;5.60;99.90;;;;;;5036022;28;20616;-56
2021/11/29 00:15:43;;;;;;;29.00;17.17;;;5.50;99.90;;;;;;5035679;28;20206;-55
2021/11/29 00:18:10;;;;;;;31.20;18.97;;;5.50;99.90;;;;;;5035683;28;20233;-54
2021/11/29 00:20:37;;;;;;;19.33;13.43;;;5.50;99.90;;;;;;5035824;28;20206;-56
2021/11/29 00:23:05;;;;;;;11.00;9.20;;;5.40;99.90;;;;;;5035509;28;20206;-54
2021/11/29 00:25:32;;;;;;;10.60;9.07;;;5.40;99.90;;;;;;5035429;28;20689;-54
2021/11/29 00:27:58;;;;;;;10.47;9.37;;;5.40;99.90;;;;;;5035909;28;20202;-54
2021/11/29 00:30:25;;;;;;;10.70;9.60;;;5.50;99.90;;;;;;5035766;28;20213;-54
2021/11/29 00:32:52;;;;;;;11.50;9.90;;;5.50;99.90;;;;;;5035385;28;20217;-54
2021/11/29 00:35:19;;;;;;;11.07;9.13;;;5.60;99.90;;;;;;5035547;28;20670;-54
2021/11/29 00:37:45;;;;;;;12.63;10.43;;;5.60;99.90;;;;;;5035328;28;20698;-56
2021/11/29 00:40:14;;;;;;;11.07;9.70;;;5.40;99.90;;;;;;5035676;28;20209;-54
2021/11/29 00:42:41;;;;;;;10.80;9.33;;;5.00;99.90;;;;;;5035761;28;20582;-54
2021/11/29 00:45:09;;;;;;;10.67;9.00;;;4.60;99.90;;;;;;5035738;28;20226;-54
2021/11/29 00:47:35;;;;;;;10.03;9.00;;;4.60;99.90;;;;;;5035368;28;20206;-55
2021/11/29 00:50:03;;;;;;;12.80;10.47;;;4.70;99.90;;;;;;5035320;28;20213;-55
2021/11/29 00:52:29;;;;;;;12.83;9.90;;;4.60;99.90;;;;;;5035665;28;20276;-56
2021/11/29 00:54:56;;;;;;;13.87;11.20;;;4.60;99.90;;;;;;5035283;28;20718;-56
2021/11/29 00:57:24;;;;;;;15.17;10.90;;;4.50;99.90;;;;;;5035346;28;20236;-55
2021/11/29 00:59:51;;;;;;;12.87;10.70;;;4.60;99.90;;;;;;5035092;28;20268;-54
2021/11/29 01:02:20;;;;;;;11.23;10.03;;;4.70;99.90;;;;;;5034814;28;20210;-55
2021/11/29 01:04:47;;;;;;;11.73;10.00;;;4.80;99.90;;;;;;5034969;28;20250;-56
2021/11/29 01:07:13;;;;;;;9.67;7.87;;;4.70;99.90;;;;;;5035105;28;20213;-55
2021/11/29 01:09:40;;;;;;;10.47;8.33;;;4.60;99.90;;;;;;5035114;28;20225;-56
2021/11/29 01:12:08;;;;;;;9.57;7.87;;;4.40;99.90;;;;;;5034697;28;20669;-54
2021/11/29 01:14:36;;;;;;;14.50;9.97;;;4.20;99.90;;;;;;5034471;28;20241;-53
2021/11/29 01:17:04;;;;;;;8.67;7.77;;;4.20;99.90;;;;;;5034402;28;20300;-56
2021/11/29 01:19:30;;;;;;;11.20;8.27;;;4.30;99.90;;;;;;5035050;28;20206;-57
2021/11/29 01:21:57;;;;;;;10.10;8.43;;;4.40;99.90;;;;;;5034932;28;20217;-55
2021/11/29 01:24:24;;;;;;;9.60;8.30;;;4.40;99.90;;;;;;5034442;28;20717;-58
2021/11/29 01:26:51;;;;;;;14.17;10.30;;;4.60;99.90;;;;;;5034481;28;20702;-54
2021/11/29 01:29:18;;;;;;;14.23;10.27;;;4.70;99.90;;;;;;5034510;28;20206;-53
2021/11/29 01:31:46;;;;;;;11.30;9.03;;;4.70;99.90;;;;;;5034826;28;20210;-60
2021/11/29 01:34:13;;;;;;;12.57;8.60;;;4.80;99.90;;;;;;5034334;28;20222;-55
2021/11/29 01:36:40;;;;;;;12.27;9.07;;;4.90;99.90;;;;;;5034100;28;20222;-54
2021/11/29 01:39:08;;;;;;;10.97;8.27;;;4.90;99.90;;;;;;5034012;28;20325;-57
2021/11/29 01:41:34;;;;;;;9.47;8.10;;;5.00;99.90;;;;;;5033936;28;20202;-55
2021/11/29 01:44:01;;;;;;;9.47;8.17;;;5.00;99.90;;;;;;5033755;28;20230;-55
2021/11/29 01:46:28;;;;;;;9.03;8.03;;;5.10;99.90;;;;;;5033554;28;20237;-55
2021/11/29 01:48:56;;;;;;;8.77;7.33;;;5.10;99.90;;;;;;5033879;28;20209;-56
2021/11/29 01:51:23;;;;;;;10.27;8.43;;;5.10;99.90;;;;;;5033718;28;20709;-56
2021/11/29 01:53:50;;;;;;;14.83;9.93;;;5.20;99.90;;;;;;5033631;28;20768;-55
2021/11/29 01:56:16;;;;;;;14.90;11.03;;;5.20;99.90;;;;;;5033182;28;20705;-54
2021/11/29 01:58:43;;;;;;;14.00;11.67;;;5.30;99.90;;;;;;5033429;28;20225;-55
2021/11/29 02:01:14;;;;;;;14.10;11.13;;;5.10;99.90;;;;;;5033530;28;20210;-55
2021/11/29 02:03:42;;;;;;;16.70;13.00;;;4.90;99.90;;;;;;5033586;28;20226;-54
2021/11/29 02:06:10;;;;;;;16.00;12.53;;;4.90;99.90;;;;;;5033513;28;20206;-56
2021/11/29 02:08:38;;;;;;;15.27;13.10;;;4.80;99.90;;;;;;5033496;28;20203;-56
2021/11/29 02:11:06;;;;;;;18.23;14.67;;;4.70;99.90;;;;;;5033461;28;20358;-54
2021/11/29 02:13:32;;;;;;;15.47;12.93;;;4.70;99.90;;;;;;5033036;28;20233;-54
2021/11/29 02:15:59;;;;;;;13.63;11.87;;;4.90;99.90;;;;;;5033079;28;20203;-54
2021/11/29 02:18:29;;;;;;;21.57;13.40;;;5.00;99.90;;;;;;5033509;28;20230;-54
2021/11/29 02:21:02;;;;;;;14.30;12.50;;;5.10;99.90;;;;;;5033654;28;20210;-55
2021/11/29 02:23:29;;;;;;;16.87;12.83;;;5.10;99.90;;;;;;5033028;28;20744;-54
2021/11/29 02:25:56;;;;;;;16.57;13.63;;;5.10;99.90;;;;;;5032634;28;20349;-55
2021/11/29 02:28:24;;;;;;;21.47;15.23;;;5.20;99.90;;;;;;5033356;28;20210;-54
2021/11/29 02:30:51;;;;;;;18.47;13.70;;;5.20;99.90;;;;;;5033336;28;20210;-55
2021/11/29 02:33:18;;;;;;;16.37;13.77;;;5.20;99.90;;;;;;5032943;28;20229;-57
2021/11/29 02:35:45;;;;;;;14.33;12.80;;;5.20;99.90;;;;;;5032711;28;20212;-54
2021/11/29 02:38:13;;;;;;;16.40;13.50;;;5.20;99.90;;;;;;5033175;28;20233;-54
2021/11/29 02:40:40;;;;;;;16.40;13.80;;;5.30;99.90;;;;;;5033261;28;20681;-54
2021/11/29 02:43:07;;;;;;;18.20;13.47;;;5.30;99.90;;;;;;5033111;28;20217;-54
2021/11/29 02:45:33;;;;;;;17.77;14.37;;;5.30;99.90;;;;;;5032790;28;20206;-54
2021/11/29 02:48:00;;;;;;;16.90;13.93;;;5.30;99.90;;;;;;5033087;28;20210;-54
2021/11/29 02:50:27;;;;;;;17.53;13.90;;;5.30;99.90;;;;;;5032836;28;20211;-55
2021/11/29 02:52:53;;;;;;;17.60;13.63;;;5.30;99.90;;;;;;5032563;28;20210;-54
2021/11/29 02:55:21;;;;;;;15.93;13.60;;;5.40;99.90;;;;;;5032385;28;20206;-54
2021/11/29 02:57:48;;;;;;;15.90;13.60;;;5.20;99.90;;;;;;5032720;28;20206;-55
2021/11/29 03:00:15;;;;;;;16.87;13.90;;;5.30;99.90;;;;;;5032635;28;20206;-55
2021/11/29 03:02:42;;;;;;;16.70;14.17;;;5.30;99.90;;;;;;5032556;28;20210;-54
2021/11/29 03:05:09;;;;;;;24.10;17.27;;;5.40;99.90;;;;;;5032398;28;20230;-55
2021/11/29 03:07:35;;;;;;;18.93;15.07;;;5.40;99.90;;;;;;5032010;28;20288;-55
2021/11/29 03:10:03;;;;;;;16.23;13.73;;;5.40;99.90;;;;;;5032604;28;20214;-54
2021/11/29 03:12:31;;;;;;;17.90;14.23;;;5.40;99.90;;;;;;5032532;28;20210;-54
2021/11/29 03:14:58;;;;;;;17.60;14.23;;;5.40;99.90;;;;;;5032279;28;20238;-54
2021/11/29 03:17:25;;;;;;;16.27;13.17;;;5.40;99.90;;;;;;5032220;28;20210;-56
2021/11/29 03:19:52;;;;;;;17.37;14.57;;;5.40;99.90;;;;;;5032524;28;20240;-54
2021/11/29 03:22:18;;;;;;;15.70;13.73;;;5.40;99.90;;;;;;5031988;28;20214;-54
2021/11/29 03:24:46;;;;;;;17.53;14.00;;;5.40;99.90;;;;;;5031606;28;20233;-56
2021/11/29 03:27:13;;;;;;;15.53;13.47;;;5.40;99.90;;;;;;5032084;28;20217;-54
2021/11/29 03:29:43;;;;;;;16.83;14.17;;;5.50;99.90;;;;;;5032349;28;20208;-54
2021/11/29 03:32:11;;;;;;;16.73;13.50;;;5.40;99.90;;;;;;5032499;28;20231;-54
2021/11/29 03:34:37;;;;;;;20.77;15.37;;;5.50;99.90;;;;;;5032358;28;20279;-56
2021/11/29 03:37:05;;;;;;;17.87;14.83;;;5.40;99.90;;;;;;5031933;28;20202;-54
2021/11/29 03:39:32;;;;;;;28.83;18.47;;;5.50;99.90;;;;;;5032371;28;20234;-55
2021/11/29 03:42:04;;;;;;;25.93;17.83;;;5.50;99.90;;;;;;5032147;28;20213;-55
2021/11/29 03:44:30;;;;;;;18.93;15.50;;;5.50;99.90;;;;;;5032100;28;20226;-55
2021/11/29 03:46:58;;;;;;;19.47;15.00;;;5.50;99.90;;;;;;5031736;28;20235;-54
2021/11/29 03:49:26;;;;;;;19.10;15.27;;;5.50;99.90;;;;;;5031950;28;20206;-54
2021/11/29 03:51:53;;;;;;;18.00;14.73;;;5.50;99.90;;;;;;5032345;28;20230;-54
2021/11/29 03:54:20;;;;;;;16.27;13.63;;;5.50;99.90;;;;;;5032097;28;20272;-55
2021/11/29 03:56:47;;;;;;;17.40;13.97;;;5.40;99.90;;;;;;5031807;28;20206;-55
2021/11/29 03:59:14;;;;;;;17.87;14.17;;;5.30;99.90;;;;;;5031846;28;20424;-54
2021/11/29 04:01:42;;;;;;;18.37;14.13;;;5.30;99.90;;;;;;5032058;28;20206;-55
2021/11/29 04:04:10;;;;;;;17.70;14.77;;;5.20;99.90;;;;;;5031685;28;20226;-55
2021/11/29 04:06:38;;;;;;;16.80;14.17;;;5.30;99.90;;;;;;5031756;28;20247;-55
2021/11/29 04:09:05;;;;;;;17.87;14.40;;;5.30;99.90;;;;;;5032078;28;20206;-54
2021/11/29 04:11:32;;;;;;;22.77;16.60;;;5.30;99.90;;;;;;5031913;28;20681;-54
2021/11/29 04:13:59;;;;;;;20.17;16.57;;;5.30;99.90;;;;;;5031566;28;20237;-54
2021/11/29 04:16:26;;;;;;;20.27;15.80;;;5.30;99.90;;;;;;5031488;28;20213;-55
2021/11/29 04:18:53;;;;;;;19.60;15.57;;;5.40;99.90;;;;;;5031847;28;20699;-57
2021/11/29 04:21:21;;;;;;;18.83;15.83;;;5.30;99.90;;;;;;5031857;28;20213;-55
2021/11/29 04:23:48;;;;;;;20.97;15.17;;;5.40;99.90;;;;;;5031707;28;20226;-55
2021/11/29 04:26:17;;;;;;;19.33;15.60;;;5.50;99.90;;;;;;5031504;28;20218;-56
2021/11/29 04:28:44;;;;;;;20.63;15.53;;;5.60;99.90;;;;;;5031436;28;20228;-54
2021/11/29 04:31:11;;;;;;;22.40;15.80;;;5.60;99.90;;;;;;5031772;28;20210;-54
2021/11/29 04:33:38;;;;;;;19.37;15.33;;;5.60;99.90;;;;;;5031670;28;20222;-54
2021/11/29 04:36:05;;;;;;;20.20;15.97;;;5.70;99.90;;;;;;5032465;28;20241;-56
2021/11/29 04:38:33;;;;;;;22.13;16.27;;;5.70;99.90;;;;;;5035103;28;20222;-54
2021/11/29 04:41:00;;;;;;;24.67;17.50;;;5.70;99.90;;;;;;5035010;28;20210;-55
2021/11/29 04:43:26;;;;;;;20.07;15.70;;;5.70;99.90;;;;;;5034652;28;20230;-55
2021/11/29 04:45:53;;;;;;;20.70;16.40;;;5.70;99.90;;;;;;5034593;28;20260;-55
2021/11/29 04:48:20;;;;;;;21.43;16.63;;;5.60;99.90;;;;;;5034934;28;20601;-55
2021/11/29 04:50:47;;;;;;;19.70;15.90;;;5.60;99.90;;;;;;5034858;28;20283;-55
2021/11/29 04:53:14;;;;;;;20.60;16.40;;;5.60;99.90;;;;;;5034716;28;20234;-55
2021/11/29 04:55:42;;;;;;;22.10;17.13;;;5.60;99.90;;;;;;5034429;28;20206;-55
2021/11/29 04:58:09;;;;;;;25.17;16.57;;;5.70;99.90;;;;;;5034571;28;20700;-56
2021/11/29 05:00:36;;;;;;;22.00;16.93;;;5.60;99.90;;;;;;5034696;28;20237;-55
2021/11/29 05:03:02;;;;;;;22.13;16.80;;;5.60;99.90;;;;;;5034857;28;20217;-56
2021/11/29 05:05:29;;;;;;;25.00;16.17;;;5.60;99.90;;;;;;5034561;28;20674;-55
2021/11/29 05:07:56;;;;;;;25.10;19.20;;;5.60;99.90;;;;;;5034687;28;20260;-56
2021/11/29 05:10:22;;;;;;;22.13;17.67;;;5.60;99.90;;;;;;5034767;28;20214;-55
2021/11/29 05:12:50;;;;;;;23.47;16.77;;;5.70;99.90;;;;;;5034421;28;20214;-55
2021/11/29 05:15:17;;;;;;;21.93;16.43;;;5.70;99.90;;;;;;5035643;28;20213;-55
2021/11/29 05:17:44;;;;;;;22.93;16.90;;;5.60;99.90;;;;;;5034727;28;20210;-57
2021/11/29 05:20:11;;;;;;;27.03;16.77;;;5.60;99.90;;;;;;5034621;28;20237;-57
2021/11/29 05:22:37;;;;;;;23.50;16.57;;;5.60;99.90;;;;;;5034356;28;20206;-56
2021/11/29 05:25:05;;;;;;;21.33;15.57;;;5.60;99.90;;;;;;5034495;28;20238;-56
2021/11/29 05:27:32;;;;;;;22.27;15.90;;;5.50;99.90;;;;;;5034423;28;20218;-55
2021/11/29 05:30:00;;;;;;;19.40;15.27;;;5.50;99.90;;;;;;5034520;28;20675;-54
2021/11/29 05:32:27;;;;;;;38.53;25.30;;;5.50;99.90;;;;;;5034442;28;20584;-55
2021/11/29 05:34:53;;;;;;;20.43;14.70;;;5.50;99.90;;;;;;5033965;28;20230;-56
2021/11/29 05:37:21;;;;;;;21.57;15.30;;;5.50;99.90;;;;;;5033989;28;20221;-55
2021/11/29 05:39:48;;;;;;;24.67;15.97;;;5.60;99.90;;;;;;5033918;28;20218;-56
2021/11/29 05:42:14;;;;;;;20.37;14.53;;;5.60;99.90;;;;;;5034491;28;20209;-55
2021/11/29 05:44:41;;;;;;;21.20;15.07;;;5.60;99.90;;;;;;5034229;28;20226;-55
2021/11/29 05:47:09;;;;;;;18.77;14.40;;;5.60;99.90;;;;;;5033209;28;20206;-55
2021/11/29 05:49:36;;;;;;;22.53;15.30;;;5.50;99.90;;;;;;5033952;28;20272;-54
2021/11/29 05:52:03;;;;;;;31.03;19.73;;;5.50;99.90;;;;;;5034149;28;20272;-54
2021/11/29 05:54:30;;;;;;;18.93;13.93;;;5.50;99.90;;;;;;5033657;28;20288;-54
2021/11/29 05:56:57;;;;;;;20.90;14.87;;;5.50;99.90;;;;;;5033476;28;20592;-54
2021/11/29 05:59:23;;;;;;;23.73;17.33;;;5.50;99.90;;;;;;5033670;28;20231;-55
2021/11/29 06:01:50;;;;;;;21.13;14.50;;;5.60;99.90;;;;;;5033664;28;20215;-54
2021/11/29 06:04:19;;;;;;;29.13;20.03;;;5.60;99.90;;;;;;5033613;28;20222;-56
2021/11/29 06:06:46;;;;;;;21.27;15.30;;;5.60;99.90;;;;;;5033245;28;20210;-56
2021/11/29 06:09:13;;;;;;;19.17;14.53;;;5.50;99.90;;;;;;5033774;28;20206;-54
2021/11/29 06:11:40;;;;;;;21.03;14.47;;;5.50;99.90;;;;;;5033336;28;20214;-55
2021/11/29 06:14:07;;;;;;;22.83;15.17;;;5.50;99.90;;;;;;5033380;28;20741;-55
2021/11/29 06:16:34;;;;;;;17.07;13.43;;;5.40;99.90;;;;;;5032993;28;20206;-56
2021/11/29 06:19:01;;;;;;;29.10;18.33;;;5.40;99.90;;;;;;5033255;28;20222;-55
2021/11/29 06:21:29;;;;;;;25.50;16.13;;;5.40;99.90;;;;;;5032974;28;20206;-56
2021/11/29 06:23:55;;;;;;;20.57;15.10;;;5.30;99.90;;;;;;5033359;28;20249;-57
2021/11/29 06:26:23;;;;;;;21.27;14.57;;;5.30;99.90;;;;;;5033091;28;20217;-54
2021/11/29 06:28:49;;;;;;;21.23;14.90;;;5.20;99.90;;;;;;5033089;28;20373;-55
2021/11/29 06:31:16;;;;;;;19.23;14.07;;;5.10;99.90;;;;;;5032978;28;20209;-55
2021/11/29 06:33:43;;;;;;;17.80;13.40;;;5.10;99.90;;;;;;5032980;28;20241;-54
2021/11/29 06:36:11;;;;;;;24.13;16.77;;;5.10;99.90;;;;;;5032565;28;20264;-56
2021/11/29 06:38:39;;;;;;;21.40;15.77;;;5.10;99.90;;;;;;5032996;28;20217;-56
2021/11/29 06:41:06;;;;;;;30.20;19.73;;;5.20;99.90;;;;;;5032886;28;20233;-55
2021/11/29 06:43:33;;;;;;;17.57;13.53;;;5.20;99.90;;;;;;5032473;28;20222;-56
2021/11/29 06:46:00;;;;;;;18.63;13.87;;;5.00;99.90;;;;;;5032348;28;20210;-56
2021/11/29 06:48:28;;;;;;;16.57;12.47;;;5.00;99.90;;;;;;5033291;28;20202;-55
2021/11/29 06:50:56;;;;;;;19.27;12.93;;;4.90;99.90;;;;;;5032641;28;20684;-55
2021/11/29 06:53:24;;;;;;;18.43;13.90;;;5.00;99.90;;;;;;5033401;28;20280;-55
2021/11/29 06:55:55;;;;;;;18.80;13.80;;;5.10;99.90;;;;;;5032610;28;20217;-55
2021/11/29 06:58:22;;;;;;;16.90;12.53;;;5.10;99.90;;;;;;5032253;28;20210;-55
2021/11/29 07:00:50;;;;;;;16.07;12.30;;;5.20;99.90;;;;;;5033229;28;20233;-56
2021/11/29 07:03:17;;;;;;;16.67;12.87;;;5.10;99.90;;;;;;5032601;28;20603;-56
2021/11/29 07:05:44;;;;;;;18.40;12.13;;;5.10;99.90;;;;;;5032919;28;20622;-55
2021/11/29 07:08:11;;;;;;;17.00;10.83;;;5.10;99.90;;;;;;5032649;28;20704;-56
2021/11/29 07:10:40;;;;;;;15.53;11.47;;;4.90;99.90;;;;;;5032829;28;20202;-54
2021/11/29 07:13:10;;;;;;;15.20;10.70;;;4.70;99.90;;;;;;5032593;28;20291;-55
2021/11/29 07:15:37;;;;;;;22.93;14.13;;;4.80;99.90;;;;;;5032631;28;20203;-55
2021/11/29 07:18:04;;;;;;;16.50;12.63;;;4.80;99.90;;;;;;5032460;28;20202;-54
2021/11/29 07:20:31;;;;;;;18.70;11.77;;;4.70;99.90;;;;;;5032715;28;20605;-55
2021/11/29 07:22:58;;;;;;;16.30;12.40;;;4.80;99.90;;;;;;5032283;28;20670;-55
2021/11/29 07:25:25;;;;;;;14.70;11.00;;;4.90;99.90;;;;;;5032802;28;20210;-55
2021/11/29 07:27:52;;;;;;;13.87;9.87;;;5.00;99.90;;;;;;5032193;28;20214;-55
2021/11/29 07:30:22;;;;;;;16.30;10.10;;;5.00;99.90;;;;;;5032348;28;20210;-55
2021/11/29 07:32:53;;;;;;;18.13;12.30;;;5.10;99.90;;;;;;5032344;28;20288;-55
2021/11/29 07:35:20;;;;;;;20.40;13.13;;;5.20;99.90;;;;;;5032650;28;20207;-56
2021/11/29 07:37:47;;;;;;;13.53;10.20;;;5.10;99.90;;;;;;5031812;28;20210;-55
2021/11/29 07:40:14;;;;;;;13.63;9.93;;;5.00;99.90;;;;;;5032252;28;20226;-54
2021/11/29 07:42:41;;;;;;;15.23;9.77;;;5.00;99.90;;;;;;5031989;28;20237;-55
2021/11/29 07:45:11;;;;;;;16.27;10.10;;;5.00;99.90;;;;;;5032149;28;20228;-57
2021/11/29 07:47:40;;;;;;;14.83;10.60;;;5.10;99.90;;;;;;5031876;28;20270;-54
2021/11/29 07:50:09;;;;;;;15.77;10.03;;;4.90;99.90;;;;;;5032288;28;20206;-55
2021/11/29 07:52:36;;;;;;;25.37;19.57;;;4.90;99.90;;;;;;5032217;28;20206;-55
2021/11/29 07:55:06;;;;;;;15.10;9.87;;;5.00;99.90;;;;;;5031857;28;20609;-55
2021/11/29 07:57:33;;;;;;;13.17;9.77;;;5.10;99.90;;;;;;5031756;28;20206;-55
2021/11/29 08:00:04;;;;;;;12.17;9.03;;;5.10;99.90;;;;;;5032074;28;20253;-56
2021/11/29 08:02:30;;;;;;;12.70;9.47;;;5.20;99.90;;;;;;5031947;28;20202;-54
2021/11/29 08:04:58;;;;;;;14.37;9.60;;;5.20;99.90;;;;;;5032195;28;20230;-55
2021/11/29 08:07:25;;;;;;;14.07;8.97;;;5.40;99.90;;;;;;5031802;28;20206;-55
2021/11/29 08:09:52;;;;;;;13.33;9.67;;;5.40;99.90;;;;;;5032817;28;20695;-55
2021/11/29 08:12:19;;;;;;;12.90;9.33;;;5.40;99.90;;;;;;5035860;28;20670;-55
2021/11/29 08:14:45;;;;;;;13.27;9.83;;;5.50;99.90;;;;;;5035861;28;20238;-55
2021/11/29 08:17:12;;;;;;;16.00;10.87;;;5.60;99.90;;;;;;5035754;28;20431;-55
2021/11/29 08:19:39;;;;;;;14.57;9.53;;;5.60;99.90;;;;;;5035588;28;20222;-56
2021/11/29 08:22:07;;;;;;;9.67;7.53;;;5.60;99.90;;;;;;5035983;28;20260;-55
2021/11/29 08:24:33;;;;;;;13.60;8.03;;;5.50;99.90;;;;;;5035380;28;20234;-55
2021/11/29 08:27:00;;;;;;;12.93;7.80;;;5.30;99.90;;;;;;5035659;28;20609;-55
2021/11/29 08:29:27;;;;;;;9.30;6.87;;;5.30;99.90;;;;;;5035951;28;20206;-55
2021/11/29 08:31:53;;;;;;;14.43;6.80;;;5.20;99.90;;;;;;5035859;28;20206;-54
2021/11/29 08:34:20;;;;;;;11.67;7.17;;;5.10;99.90;;;;;;5035636;28;20234;-54
2021/11/29 08:36:47;;;;;;;12.73;7.97;;;5.00;99.90;;;;;;5035299;28;20217;-55
2021/11/29 08:39:15;;;;;;;13.47;8.27;;;5.10;99.90;;;;;;5035498;28;20210;-55
2021/11/29 08:41:42;;;;;;;15.40;7.70;;;5.10;99.90;;;;;;5035536;28;20690;-55
2021/11/29 08:44:11;;;;;;;14.83;8.57;;;5.20;99.90;;;;;;5035283;28;20233;-55
2021/11/29 08:46:38;;;;;;;11.10;7.30;;;5.30;99.90;;;;;;5034613;28;20206;-57
2021/11/29 08:49:05;;;;;;;10.13;7.07;;;5.30;99.90;;;;;;5035653;28;20218;-57
2021/11/29 08:51:32;;;;;;;14.40;8.23;;;5.40;99.90;;;;;;5036565;28;20206;-55
2021/11/29 08:53:59;;;;;;;10.93;8.10;;;5.60;99.90;;;;;;5036655;28;20257;-55
2021/11/29 08:56:27;;;;;;;11.70;7.30;;;5.70;99.90;;;;;;5036111;28;20206;-56
2021/11/29 08:58:54;;;;;;;10.67;6.93;;;5.90;99.90;;;;;;5036167;28;20214;-55
2021/11/29 09:01:21;;;;;;;8.23;6.30;;;6.10;99.90;;;;;;5036009;28;20249;-57
2021/11/29 09:03:48;;;;;;;8.60;6.03;;;6.20;99.90;;;;;;5036162;28;20230;-56
2021/11/29 09:06:14;;;;;;;10.97;6.23;;;6.20;99.90;;;;;;5035959;28;20249;-54
2021/11/29 09:08:41;;;;;;;8.03;5.93;;;6.10;99.90;;;;;;5036205;28;20222;-54
2021/11/29 09:11:09;;;;;;;7.63;5.93;;;6.00;99.90;;;;;;5036204;28;20198;-56
2021/11/29 09:13:38;;;;;;;7.97;5.33;;;6.00;99.90;;;;;;5035792;28;20269;-55
2021/11/29 09:16:07;;;;;;;9.27;5.83;;;6.00;99.90;;;;;;5035858;28;20658;-56
2021/11/29 09:18:34;;;;;;;9.20;5.80;;;6.10;99.90;;;;;;5036501;28;20735;-56
2021/11/29 09:21:01;;;;;;;10.73;6.20;;;6.20;99.90;;;;;;5035536;28;20229;-54
2021/11/29 09:23:28;;;;;;;8.00;5.57;;;6.10;99.90;;;;;;5035461;28;20233;-56
2021/11/29 09:25:55;;;;;;;9.30;6.23;;;6.00;99.90;;;;;;5035083;28;20213;-53
2021/11/29 09:28:22;;;;;;;9.90;6.63;;;6.00;99.90;;;;;;5034482;28;20268;-55
2021/11/29 09:30:51;;;;;;;8.70;6.37;;;6.00;99.90;;;;;;5034786;28;20202;-54
2021/11/29 09:33:18;;;;;;;10.60;6.80;;;6.20;99.90;;;;;;5036109;28;20236;-56
2021/11/29 09:35:45;;;;;;;13.57;6.83;;;6.40;99.90;;;;;;5035572;28;20720;-54
2021/11/29 09:38:12;;;;;;;10.17;6.70;;;6.50;99.90;;;;;;5035167;28;20210;-54
2021/11/29 09:40:42;;;;;;;7.63;6.23;;;6.50;99.90;;;;;;5035369;28;20233;-54
2021/11/29 09:43:11;;;;;;;10.13;6.50;;;6.50;99.90;;;;;;5035280;28;20230;-54
2021/11/29 09:45:40;;;;;;;10.63;6.20;;;6.50;99.90;;;;;;5035574;28;20210;-54
2021/11/29 09:48:10;;;;;;;9.67;6.30;;;6.60;99.90;;;;;;5034999;28;20666;-55
2021/11/29 09:50:39;;;;;;;7.73;6.10;;;6.60;99.90;;;;;;5035476;28;20203;-56
2021/11/29 09:53:07;;;;;;;7.47;6.07;;;6.70;99.90;;;;;;5035424;28;20237;-55
2021/11/29 09:55:34;;;;;;;10.70;6.03;;;6.80;99.90;;;;;;5035280;28;20613;-54
2021/11/29 09:58:01;;;;;;;10.50;5.70;;;6.90;99.90;;;;;;5035682;28;20301;-56
2021/11/29 10:00:30;;;;;;;9.77;5.43;;;7.10;99.90;;;;;;5034940;28;20251;-55
2021/11/29 10:02:57;;;;;;;11.07;5.93;;;7.30;99.90;;;;;;5033933;28;20589;-56
2021/11/29 10:05:26;;;;;;;9.03;5.37;;;7.60;99.90;;;;;;5034330;28;20217;-54
2021/11/29 10:07:53;;;;;;;7.40;5.23;;;7.70;99.90;;;;;;5033839;28;20210;-56
2021/11/29 10:10:24;;;;;;;8.60;4.90;;;7.80;99.90;;;;;;5033844;28;20301;-54
2021/11/29 10:12:53;;;;;;;9.80;5.23;;;7.80;99.90;;;;;;5033768;28;20210;-54
2021/11/29 10:15:25;;;;;;;11.87;6.37;;;7.70;99.90;;;;;;5034080;28;20210;-54
2021/11/29 10:18:01;;;;;;;7.03;4.37;;;7.40;99.90;;;;;;5033480;28;20286;-54
2021/11/29 10:20:32;;;;;;;7.70;4.80;;;7.30;99.90;;;;;;5033737;28;20233;-54
2021/11/29 10:23:03;;;;;;;8.77;4.50;;;7.20;99.90;;;;;;5033642;28;20206;-54
2021/11/29 10:25:30;;;;;;;7.20;4.83;;;7.20;99.90;;;;;;5033672;28;20260;-57
2021/11/29 10:27:57;;;;;;;9.70;4.87;;;7.30;99.90;;;;;;5033848;28;20213;-54
2021/11/29 10:30:28;;;;;;;7.73;4.10;;;7.50;99.90;;;;;;5033431;28;20202;-54
2021/11/29 10:32:55;;;;;;;6.30;4.17;;;7.50;99.90;;;;;;5033383;28;20715;-55
2021/11/29 10:35:29;;;;;;;11.37;4.77;;;7.50;99.90;;;;;;5033788;28;20213;-54
2021/11/29 10:37:58;;;;;;;8.00;4.60;;;7.60;99.90;;;;;;5033117;28;20208;-55
2021/11/29 10:40:26;;;;;;;7.80;4.80;;;7.60;99.90;;;;;;5033128;28;20234;-55
2021/11/29 10:42:53;;;;;;;14.00;4.97;;;7.60;99.90;;;;;;5033204;28;20206;-55
2021/11/29 10:45:24;;;;;;;7.53;4.30;;;7.50;99.90;;;;;;5033311;28;20264;-55
2021/11/29 10:47:53;;;;;;;6.20;3.90;;;7.50;99.90;;;;;;5032956;28;20209;-56
2021/11/29 10:50:25;;;;;;;10.63;4.07;;;7.50;99.90;;;;;;5033199;28;20481;-55
2021/11/29 10:53:09;;;;;;;6.10;4.10;;;7.60;99.90;;;;;;5033213;28;20201;-55
2021/11/29 10:55:59;;;;;;;6.17;4.10;;;7.50;99.90;;;;;;5033542;28;20210;-55
2021/11/29 10:58:28;;;;;;;7.37;4.13;;;7.60;99.90;;;;;;5033060;28;20206;-54
2021/11/29 11:00:58;;;;;;;5.20;4.00;;;7.60;99.90;;;;;;5032655;28;20297;-57
2021/11/29 11:03:26;;;;;;;7.27;4.40;;;7.60;99.90;;;;;;5032968;28;20607;-55
2021/11/29 11:06:01;;;;;;;5.90;3.97;;;7.60;99.90;;;;;;5033011;28;20272;-55
2021/11/29 11:08:34;;;;;;;8.07;4.43;;;7.60;99.90;;;;;;5032440;28;20215;-55
2021/11/29 11:11:01;;;;;;;5.07;3.47;;;7.50;99.90;;;;;;5032724;28;20205;-58
2021/11/29 11:13:29;;;;;;;5.80;3.73;;;7.50;99.90;;;;;;5046974;22;20230;-61
2021/11/29 11:15:56;;;;;;;6.30;4.10;;;7.40;99.90;;;;;;5013024;28;20266;-61
2021/11/29 11:18:23;;;;;;;6.77;3.67;;;7.40;99.90;;;;;;5012926;28;20213;-61
2021/11/29 11:20:50;;;;;;;8.77;4.37;;;7.40;99.90;;;;;;5013045;28;20226;-60
2021/11/29 11:23:26;;;;;;;9.97;4.30;;;7.40;99.90;;;;;;5012646;28;20206;-61
2021/11/29 11:25:54;;;;;;;6.43;3.93;;;7.40;99.90;;;;;;5012434;28;20678;-60
2021/11/29 11:28:20;;;;;;;8.67;4.30;;;7.20;99.90;;;;;;5012979;28;20213;-61
2021/11/29 11:30:47;;;;;;;8.00;4.10;;;7.00;99.90;;;;;;5012551;28;20659;-61
2021/11/29 11:33:19;;;;;;;7.87;4.50;;;6.90;99.90;;;;;;5012288;28;20306;-61
2021/11/29 11:35:49;;;;;;;7.03;4.53;;;6.80;99.90;;;;;;5012493;28;20591;-61
2021/11/29 11:38:18;;;;;;;9.20;5.00;;;6.80;99.90;;;;;;5012263;28;20246;-61
2021/11/29 11:40:47;;;;;;;9.30;4.33;;;6.80;99.90;;;;;;5012617;28;20227;-62
2021/11/29 11:43:17;;;;;;;7.40;4.90;;;6.80;99.90;;;;;;5012716;28;20210;-60
2021/11/29 11:45:45;;;;;;;9.90;4.87;;;6.90;99.90;;;;;;5014877;28;20675;-61
2021/11/29 11:48:13;;;;;;;9.67;5.20;;;7.00;99.90;;;;;;5016201;28;20215;-60
2021/11/29 11:50:44;;;;;;;6.13;4.10;;;7.10;99.90;;;;;;5016268;28;20679;-60
2021/11/29 11:53:12;;;;;;;6.90;4.20;;;7.20;99.90;;;;;;5016684;28;20577;-60
2021/11/29 11:55:41;;;;;;;7.13;4.10;;;7.10;99.90;;;;;;5016521;28;20206;-60
2021/11/29 11:58:12;;;;;;;7.37;4.00;;;7.10;99.90;;;;;;5016136;28;20260;-60
2021/11/29 12:00:45;;;;;;;8.43;4.40;;;7.10;99.90;;;;;;5016245;28;20285;-60
2021/11/29 12:03:16;;;;;;;6.53;4.10;;;7.10;99.90;;;;;;5016254;28;20207;-60
2021/11/29 12:05:52;;;;;;;6.97;4.30;;;7.20;99.90;;;;;;5016316;28;20214;-60
2021/11/29 12:08:39;;;;;;;9.70;5.07;;;7.30;99.90;;;;;;5015990;28;20731;-61
2021/11/29 12:11:28;;;;;;;8.90;5.77;;;7.10;99.90;;;;;;5016830;28;20545;-61
2021/11/29 12:14:05;;;;;;;7.60;4.53;;;6.90;99.90;;;;;;5015970;28;20235;-61
2021/11/29 12:16:34;;;;;;;7.50;4.13;;;6.90;99.90;;;;;;5016233;28;20725;-61
2021/11/29 12:19:01;;;;;;;7.03;4.40;;;7.00;99.90;;;;;;5016781;28;20226;-60
2021/11/29 12:21:35;;;;;;;7.53;4.20;;;7.00;99.90;;;;;;5016194;28;20227;-60
2021/11/29 12:24:06;;;;;;;8.37;4.23;;;7.10;99.90;;;;;;5016321;28;20710;-60
2021/11/29 12:26:59;;;;;;;7.53;4.40;;;7.20;99.90;;;;;;5016085;28;20222;-60
2021/11/29 12:29:48;;;;;;;9.63;3.90;;;7.00;99.90;;;;;;5016174;28;20636;-60
2021/11/29 12:32:16;;;;;;;7.00;4.07;;;6.90;99.90;;;;;;5016055;28;20557;-60
2021/11/29 12:35:08;;;;;;;8.57;3.90;;;6.90;99.90;;;;;;5015610;28;20223;-60
2021/11/29 12:37:37;;;;;;;17.50;8.30;;;7.00;99.90;;;;;;5001821;28;20207;-61
2021/11/29 12:40:10;;;;;;;6.10;4.30;;;7.00;99.90;;;;;;5016497;28;20233;-61
2021/11/29 12:42:54;;;;;;;8.30;3.80;;;6.90;99.90;;;;;;5015626;28;20227;-61
2021/11/29 12:45:26;;;;;;;7.10;4.17;;;6.90;99.90;;;;;;5016221;28;20285;-60
2021/11/29 12:47:57;;;;;;;6.47;4.37;;;6.80;99.90;;;;;;5016632;28;20211;-60
2021/11/29 12:50:30;;;;;;;6.43;3.57;;;6.70;99.90;;;;;;5016240;28;20711;-60